Latest Weather Observations for Dum In Mirrie

IDD60801

Issued at 5:01 pm CST Tuesday 28 June 2016 (issued every 30 minutes, with the page automatically refreshed every 10 minutes)

About weather observations | Map of weather stations | Latest weather observations for NT | Other Formats
Station Details ID: 014277 Name: DUM IN MIRRIE AIRSTRIP Lat: -12.63 Lon: 130.37 Height: 3.5 m
Data from the previous 72 hours. | See also: Recent months at Dum In Mirrie
Date/Time
CST
Temp
°C
App
Temp
°C
Dew
Point
°C
Rel
Hum
%
Delta-T
°C
Wind Press
QNH
hPa
Press
MSL
hPa
Rain since
9am
mm
Dir  Spd
km/h
Gust
km/h
Spd
kts
Gust
kts
28/05:00pm 29.9 33.8 23.6 69 4.3 N 9 17 5 9 1011.5 1011.5 0.0
28/04:30pm 30.5 34.2 23.2 65 5.0 N 9 19 5 10 1011.3 1011.3 0.0
28/04:00pm 30.6 33.6 23.3 65 5.0 N 13 20 7 11 1011.2 1011.2 0.0
28/03:30pm 31.6 34.6 22.6 59 6.2 NNE 11 19 6 10 1011.3 1011.3 0.0
28/03:00pm 33.0 34.4 19.5 45 8.9 ENE 11 19 6 10 1011.4 1011.4 0.0
28/02:30pm 32.3 33.0 18.8 44 8.8 NE 13 19 7 10 1011.7 1011.7 0.0
28/02:00pm 32.0 32.9 19.3 47 8.3 E 13 20 7 11 1012.0 1012.0 0.0
28/01:30pm 32.1 32.7 19.4 47 8.3 E 15 24 8 13 1012.3 1012.3 0.0
28/01:00pm 31.2 32.2 19.5 49 7.7 ESE 13 22 7 12 1012.9 1012.9 0.0
28/12:30pm 30.9 31.3 19.9 52 7.2 E 17 30 9 16 1013.3 1013.3 0.0
28/12:00pm 30.5 31.0 20.1 53 6.9 E 17 24 9 13 1013.7 1013.7 0.0
28/11:30am 29.6 30.3 20.5 58 6.0 E 17 24 9 13 1014.1 1014.1 0.0
28/11:00am 29.7 30.9 21.4 61 5.6 E 17 28 9 15 1014.4 1014.4 0.0
28/10:30am 28.7 30.4 21.7 66 4.7 E 15 24 8 13 1014.5 1014.5 0.0
28/10:00am 28.1 30.8 22.1 70 4.0 ESE 11 19 6 10 1014.5 1014.5 0.0
28/09:30am 27.3 30.6 22.5 75 3.2 E 9 17 5 9 1014.5 1014.5 0.0
28/09:00am 26.1 29.4 22.6 81 2.4 ESE 9 15 5 8 1014.2 1014.2 0.0
28/08:30am 25.2 29.0 22.7 86 1.7 ESE 7 17 4 9 1014.1 1014.1 0.0
28/08:00am 24.4 28.2 22.8 91 1.1 ESE 7 13 4 7 1013.8 1013.8 0.0
28/07:30am 24.0 27.9 23.0 94 0.7 ESE 7 9 4 5 1013.3 1013.3 0.0
28/07:00am 23.7 27.8 22.9 95 0.5 ESE 6 7 3 4 1013.0 1013.0 0.0
28/06:30am 23.7 28.2 23.0 96 0.5 ESE 4 7 2 4 1012.8 1012.8 0.0
28/06:00am 23.9 28.6 23.4 97 0.3 ESE 4 6 2 3 1012.5 1012.5 0.0
28/05:30am 23.7 28.6 23.0 96 0.5 SE 2 4 1 2 1012.4 1012.4 0.0
28/05:00am 23.9 28.8 23.0 95 0.6 ESE 2 4 1 2 1012.2 1012.2 0.0
28/04:30am 24.4 29.2 23.5 95 0.6 ESE 4 4 2 2 1012.1 1012.1 0.0
28/04:00am 24.8 29.9 24.1 96 0.5 ESE 4 6 2 3 1012.1 1012.1 0.0
28/03:30am 24.9 29.6 24.0 95 0.6 E 6 7 3 4 1012.2 1012.2 0.0
28/03:00am 25.1 29.9 24.2 95 0.6 E 6 9 3 5 1012.5 1012.5 0.0
28/02:30am 25.0 30.1 24.0 94 0.7 ESE 4 7 2 4 1012.7 1012.7 0.0
28/02:00am 24.7 29.3 23.8 95 0.6 E 6 9 3 5 1012.9 1012.9 0.0
28/01:30am 23.9 28.4 22.9 94 0.7 ENE 4 6 2 3 1012.9 1012.9 0.0
28/01:00am 24.2 28.9 23.3 95 0.6 E 4 6 2 3 1013.3 1013.3 0.0
28/12:30am 23.5 28.3 22.8 96 0.5 NE 2 6 1 3 1013.4 1013.4 0.0
28/12:00am 23.8 29.1 23.0 95 0.5 CALM 0 0 0 0 1013.5 1013.5 0.0
 
Date/Time
CST
Temp
°C
App
Temp
°C
Dew
Point
°C
Rel
Hum
%
Delta-T
°C
Wind Press
QNH
hPa
Press
MSL
hPa
Rain since
9am
mm
Dir  Spd
km/h
Gust
km/h
Spd
kts
Gust
kts
27/11:30pm 24.0 29.3 23.1 95 0.6 CALM 0 0 0 0 1013.7 1013.7 0.0
27/11:00pm 24.1 29.1 23.2 95 0.6 SE 2 6 1 3 1013.7 1013.7 0.0
27/10:30pm 23.7 28.7 22.5 93 0.8 CALM 0 0 0 0 1013.6 1013.6 0.0
27/10:00pm 24.0 29.1 22.6 92 0.9 CALM 0 0 0 0 1013.3 1013.3 0.0
27/09:30pm 24.0 28.9 22.3 90 1.1 CALM 0 0 0 0 1013.0 1013.0 0.0
27/09:00pm 24.5 29.7 22.8 90 1.1 CALM 0 0 0 0 1012.8 1012.8 0.0
27/08:30pm 24.7 29.8 22.6 88 1.4 CALM 0 0 0 0 1012.5 1012.5 0.0
27/08:00pm 25.0 30.0 22.5 86 1.7 CALM 0 0 0 0 1012.2 1012.2 0.0
27/07:30pm 25.8 30.9 22.7 83 2.1 CALM 0 0 0 0 1011.8 1011.8 0.0
27/07:00pm 26.7 32.0 23.0 80 2.5 CALM 0 0 0 0 1011.4 1011.4 0.0
27/06:30pm 27.9 33.1 23.5 77 3.0 NNW 2 7 1 4 1011.1 1011.1 0.0
27/06:00pm 28.7 33.6 23.6 74 3.5 NNW 4 9 2 5 1010.6 1010.6 0.0
27/05:30pm 29.1 33.3 23.5 72 3.9 NNW 7 13 4 7 1010.3 1010.3 0.0
27/05:00pm 29.5 33.8 23.7 71 4.0 NNW 7 13 4 7 1010.2 1010.2 0.0
27/04:30pm 29.9 34.5 24.1 71 4.0 NNW 7 11 4 6 1009.9 1009.9 0.0
27/04:00pm 29.7 33.6 23.6 69 4.2 NNW 9 17 5 9 1009.8 1009.8 0.0
27/03:30pm 30.0 33.6 23.7 69 4.4 NNW 11 15 6 8 1009.8 1009.8 0.0
27/03:00pm 30.4 33.8 23.3 66 4.9 NNW 11 17 6 9 1009.8 1009.8 0.0
27/02:30pm 30.3 32.7 23.0 65 5.0 N 15 22 8 12 1010.0 1010.0 0.0
27/02:00pm 30.9 33.8 23.8 66 4.9 N 15 22 8 12 1010.5 1010.5 0.0
27/01:30pm 31.0 34.6 23.1 63 5.4 N 9 15 5 8 1010.9 1010.9 0.0
27/01:00pm 32.0 35.1 21.5 53 7.1 E 7 11 4 6 1011.5 1011.5 0.0
27/12:30pm 31.2 34.1 21.1 55 6.8 ENE 7 17 4 9 1012.1 1012.1 0.0
27/12:00pm 30.3 33.3 20.8 56 6.3 ESE 6 9 3 5 1012.7 1012.7 0.0
27/11:30am 30.5 32.2 20.1 53 6.9 ENE 11 19 6 10 1012.8 1012.8 0.0
27/11:00am 29.9 32.8 21.8 62 5.5 ENE 9 13 5 7 1013.1 1013.1 0.0
27/10:30am 29.4 32.2 21.6 63 5.2 E 9 13 5 7 1013.2 1013.2 0.0
27/10:00am 28.7 32.1 22.0 67 4.5 E 7 9 4 5 1013.4 1013.4 0.0
27/09:30am 27.8 31.7 22.5 73 3.6 E 6 9 3 5 1013.5 1013.5 0.0
27/09:00am 26.5 30.1 22.1 77 3.0 ESE 6 9 3 5 1013.3 1013.3 0.0
27/08:30am 24.9 29.4 23.0 89 1.3 ESE 4 6 2 3 1013.0 1013.0 0.0
27/08:00am 23.6 28.7 23.4 99 0.1 SE 2 6 1 3 1012.6 1012.6 0.0
27/07:30am 20.9 24.4 20.4 97 0.3 SE 2 4 1 2 1012.2 1012.2 0.0
27/07:00am 21.4 24.9 21.1 98 0.2 ESE 4 4 2 2 1012.0 1012.0 0.0
27/06:30am 21.8 25.9 21.5 98 0.2 E 2 6 1 3 1011.8 1011.8 0.0
27/06:00am 21.7 25.4 21.4 98 0.2 ESE 4 4 2 2 1011.6 1011.6 0.0
27/05:30am 21.7 25.3 21.2 97 0.3 ESE 4 4 2 2 1011.5 1011.5 0.0
27/05:00am 22.6 27.1 22.3 98 0.2 SE 2 6 1 3 1011.4 1011.4 0.0
27/04:30am 22.0 25.8 21.7 98 0.2 SSE 4 4 2 2 1011.3 1011.3 0.0
27/04:00am 21.9 25.7 21.6 98 0.2 SSE 4 6 2 3 1011.1 1011.1 0.0
27/03:30am 22.0 26.0 21.3 96 0.5 SSE 2 4 1 2 1011.0 1011.0 0.0
27/03:00am 22.6 27.1 22.3 98 0.2 SSE 2 4 1 2 1011.1 1011.1 0.0
27/02:30am 22.2 26.9 21.9 98 0.2 CALM 0 0 0 0 1011.4 1011.4 0.0
27/02:00am 22.4 27.1 21.9 97 0.3 CALM 0 0 0 0 1011.6 1011.6 0.0
27/01:30am 22.4 26.9 21.6 95 0.5 CALM 0 0 0 0 1011.7 1011.7 0.0
27/01:00am 22.4 26.8 21.4 94 0.7 CALM 0 0 0 0 1012.0 1012.0 0.0
27/12:30am 22.5 26.9 21.3 93 0.8 CALM 0 0 0 0 1012.1 1012.1 0.0
27/12:00am 22.4 26.6 20.9 91 1.0 CALM 0 0 0 0 1012.2 1012.2 0.0
 
Date/Time
CST
Temp
°C
App
Temp
°C
Dew
Point
°C
Rel
Hum
%
Delta-T
°C
Wind Press
QNH
hPa
Press
MSL
hPa
Rain since
9am
mm
Dir  Spd
km/h
Gust
km/h
Spd
kts
Gust
kts
26/11:30pm 23.2 27.8 21.8 92 0.9 CALM 0 0 0 0 1012.3 1012.3 0.0
26/11:00pm 23.1 27.5 21.4 90 1.1 CALM 0 0 0 0 1012.3 1012.3 0.0
26/10:30pm 23.2 27.6 21.3 89 1.2 CALM 0 0 0 0 1012.2 1012.2 0.0
26/10:00pm 23.4 27.8 21.3 88 1.4 CALM 0 0 0 0 1012.2 1012.2 0.0
26/09:30pm 23.7 28.0 21.2 86 1.6 CALM 0 0 0 0 1012.1 1012.1 0.0
26/09:00pm 24.0 28.3 21.1 84 1.9 CALM 0 0 0 0 1011.9 1011.9 0.0
26/08:30pm 24.4 28.8 21.3 83 2.0 CALM 0 0 0 0 1011.8 1011.8 0.0
26/08:00pm 24.6 28.9 21.1 81 2.3 CALM 0 0 0 0 1011.5 1011.5 0.0
26/07:30pm 25.9 30.3 21.3 76 3.0 CALM 0 2 0 1 1011.1 1011.1 0.0
26/07:00pm 26.9 30.8 21.9 74 3.3 N 4 9 2 5 1010.8 1010.8 0.0
26/06:30pm 27.4 31.0 22.1 73 3.6 N 6 7 3 4 1010.6 1010.6 0.0
26/06:00pm 28.2 31.8 22.0 69 4.2 N 6 9 3 5 1010.3 1010.3 0.0
26/05:30pm 29.1 32.4 21.8 64 4.9 N 7 15 4 8 1010.0 1010.0 0.0
26/05:00pm 29.6 33.3 22.6 66 4.8 N 7 13 4 7 1009.7 1009.7 0.0
26/04:30pm 29.0 32.5 22.2 66 4.6 NNW 7 11 4 6 1009.6 1009.6 0.0
26/04:00pm 29.0 31.9 22.5 68 4.4 NNW 11 15 6 8 1009.6 1009.6 0.0
26/03:30pm 29.0 32.9 23.0 70 4.1 NW 7 11 4 6 1009.7 1009.7 0.0
26/03:00pm 29.9 33.6 23.3 67 4.5 NNW 9 15 5 8 1009.9 1009.9 0.0
26/02:30pm 29.9 33.8 23.6 69 4.4 WNW 9 15 5 8 1010.2 1010.2 0.0
26/02:00pm 30.0 34.1 23.2 67 4.7 WNW 7 13 4 7 1010.5 1010.5 0.0
26/01:30pm 30.5 35.0 22.9 64 5.2 NW 4 9 2 5 1011.0 1011.0 0.0
26/01:00pm 30.8 35.0 22.4 61 5.7 WNW 4 7 2 4 1011.6 1011.6 0.0
26/12:30pm 30.0 33.8 22.4 63 5.2 W 6 9 3 5 1012.2 1012.2 0.0
26/12:00pm 30.1 34.3 22.5 63 5.2 NW 4 7 2 4 1012.6 1012.6 0.0
26/11:30am 30.5 34.7 23.2 65 5.0 E 6 13 3 7 1013.0 1013.0 0.0
26/11:00am 29.4 34.5 24.0 72 3.7 SSW 4 9 2 5 1013.4 1013.4 0.0
26/10:30am 28.5 33.5 23.9 76 3.2 SSE 4 6 2 3 1013.6 1013.6 0.0
26/10:00am 27.4 32.2 24.1 82 2.3 SE 6 9 3 5 1013.9 1013.9 0.0
26/09:30am 25.6 30.7 24.0 91 1.1 SE 4 7 2 4 1013.7 1013.7 0.0
26/09:00am 24.9 30.4 24.6 98 0.2 SE 4 7 2 4 1013.6 1013.6 0.0
26/08:30am 24.2 29.3 24.0 99 0.1 S 4 9 2 5 1013.2 1013.2 0.0
26/08:00am 24.1 28.7 23.8 98 0.2 S 6 13 3 7 1012.9 1012.9 0.0
26/07:30am 24.2 29.3 24.0 99 0.1 ESE 4 6 2 3 1012.4 1012.4 0.0
26/07:00am 24.2 29.7 24.0 99 0.1 SE 2 6 1 3 1012.0 1012.0 0.0
26/06:30am 24.1 28.8 23.9 99 0.1 SE 6 9 3 5 1011.7 1011.7 0.0
26/06:00am 24.1 28.8 23.9 99 0.1 SSE 6 9 3 5 1011.6 1011.6 0.0
26/05:30am 24.2 29.3 24.0 99 0.1 SE 4 9 2 5 1011.5 1011.5 0.0
26/05:00am 24.3 29.0 24.0 98 0.2 SE 6 9 3 5 1011.3 1011.3 0.0
26/04:30am 24.3 29.0 24.0 98 0.2 SSE 6 9 3 5 1011.1 1011.1 0.0
26/04:00am 24.0 28.8 23.5 97 0.3 SSE 4 7 2 4 1011.0 1011.0 0.0
26/03:30am 24.1 28.5 23.4 96 0.5 SSE 6 9 3 5 1011.1 1011.1 0.0
26/03:00am 24.4 29.2 24.1 98 0.2 SSE 6 7 3 4 1011.3 1011.3 0.0
26/02:30am 23.8 28.9 23.3 97 0.3 SSE 2 4 1 2 1011.2 1011.2 0.0
26/02:00am 23.4 28.1 22.7 96 0.5 SSE 2 4 1 2 1011.3 1011.3 0.0
26/01:30am 23.2 28.2 22.5 96 0.5 CALM 0 0 0 0 1011.3 1011.3 0.0
26/01:00am 23.3 27.8 22.3 94 0.7 SSE 2 2 1 1 1011.4 1011.4 0.0
26/12:30am 23.9 28.7 22.9 94 0.7 SSE 2 2 1 1 1011.6 1011.6 0.0
26/12:00am 24.2 29.1 23.0 93 0.8 SSE 2 4 1 2 1011.7 1011.7 0.0
 
Date/Time
CST
Temp
°C
App
Temp
°C
Dew
Point
°C
Rel
Hum
%
Delta-T
°C
Wind Press
QNH
hPa
Press
MSL
hPa
Rain since
9am
mm
Dir  Spd
km/h
Gust
km/h
Spd
kts
Gust
kts
25/11:30pm 24.4 29.4 23.2 93 0.8 SSE 2 4 1 2 1011.8 1011.8 0.0
25/11:00pm 24.3 29.1 22.9 92 0.9 SSE 2 4 1 2 1012.0 1012.0 0.0
25/10:30pm 24.6 29.5 23.0 91 1.1 SSE 2 4 1 2 1011.9 1011.9 0.0
25/10:00pm 24.4 29.1 22.7 90 1.1 S 2 4 1 2 1011.8 1011.8 0.0
25/09:30pm 24.4 29.2 22.1 87 1.5 CALM 0 0 0 0 1011.8 1011.8 0.0
25/09:00pm 25.2 29.9 21.9 82 2.2 CALM 0 0 0 0 1011.7 1011.7 0.0
25/08:30pm 26.1 30.9 22.2 79 2.6 CALM 0 0 0 0 1011.3 1011.3 0.0
25/08:00pm 27.4 31.5 23.0 77 3.0 NNE 6 9 3 5 1011.0 1011.0 0.0
25/07:30pm 27.6 31.4 22.8 75 3.3 NNE 7 9 4 5 1010.8 1010.8 0.0
25/07:00pm 27.7 31.6 22.6 74 3.5 NNE 6 11 3 6 1010.5 1010.5 0.0
25/06:30pm 28.1 31.7 23.0 74 3.5 NNE 9 19 5 10 1010.4 1010.4 0.0
25/06:00pm 28.5 31.4 22.5 70 4.1 NNE 11 20 6 11 1010.1 1010.1 0.0
25/05:30pm 29.1 31.6 21.8 64 4.9 NNE 11 19 6 10 1009.8 1009.8 0.0

Other Formats:

Comma delimited format used in spreadsheet applications
http://www.bom.gov.au/fwo/IDD60801/IDD60801.94116.axf

JavaScript Object Notation format (JSON) in row-major order
http://www.bom.gov.au/fwo/IDD60801/IDD60801.94116.json